Time;durP1;ratioP1;P1;durP2;ratioP2;P2;SDS_P1;SDS_P2;PMS_P1;PMS_P2;Temp;Humidity;BMP_temperature;BMP_pressure;BME280_temperature;BME280_humidity;BME280_pressure;Samples;Min_cycle;Max_cycle;Signal;HPM_P1;HPM_P2
2022/12/29 00:04:22;;;;;;;1.17;0.50;;;15.80;67.10;;;;;;10342309;28;20096;-58
2022/12/29 00:09:23;;;;;;;0.45;0.40;;;15.70;67.40;;;;;;10354807;28;20176;-58
2022/12/29 00:36:11;;;;;;;0.85;0.40;;;15.80;66.70;;;;;;10342662;28;20026;-58
2022/12/29 00:46:36;;;;;;;0.70;0.40;;;15.90;66.50;;;;;;10350029;28;20034;-59
2022/12/29 00:51:37;;;;;;;1.42;0.60;;;15.90;66.70;;;;;;10354117;28;20037;-58
2022/12/29 00:56:38;;;;;;;0.57;0.40;;;15.80;66.90;;;;;;10350994;28;20450;-58
2022/12/29 01:01:39;;;;;;;1.13;0.80;;;15.80;67.00;;;;;;10367617;28;20018;-58
2022/12/29 01:06:40;;;;;;;1.17;0.50;;;15.70;67.30;;;;;;10356823;28;20022;-59
2022/12/29 01:11:41;;;;;;;2.05;0.60;;;15.70;67.40;;;;;;10365114;28;20567;-59
2022/12/29 01:16:42;;;;;;;0.98;0.68;;;15.80;66.80;;;;;;10341402;28;20026;-59
2022/12/29 01:21:43;;;;;;;1.20;0.40;;;15.80;67.00;;;;;;10339998;28;20072;-59
2022/12/29 01:26:44;;;;;;;0.50;0.40;;;15.70;67.10;;;;;;10339309;28;20065;-59
2022/12/29 01:31:45;;;;;;;0.82;0.50;;;15.70;67.50;;;;;;10357569;28;20508;-59
2022/12/29 01:36:46;;;;;;;0.95;0.65;;;15.60;67.70;;;;;;10336993;28;20112;-59
2022/12/29 01:41:47;;;;;;;0.73;0.35;;;15.70;67.30;;;;;;10361775;28;20026;-59
2022/12/29 01:46:50;;;;;;;0.73;0.40;;;15.80;67.10;;;;;;10348248;28;20121;-59
2022/12/29 01:51:59;;;;;;;0.70;0.40;;;15.80;67.20;;;;;;10354721;28;20810;-59
2022/12/29 01:57:04;;;;;;;1.02;0.50;;;15.70;67.50;;;;;;10345378;28;20457;-59
2022/12/29 02:02:06;;;;;;;0.45;0.30;;;15.60;67.80;;;;;;10365895;28;20097;-59
2022/12/29 02:07:16;;;;;;;0.50;0.35;;;15.60;67.90;;;;;;10359389;28;20103;-59
2022/12/29 02:12:20;;;;;;;0.82;0.40;;;15.80;67.00;;;;;;10334485;28;20045;-58
2022/12/29 02:18:08;;;;;;;1.08;0.40;;;15.80;67.00;;;;;;10357067;28;20022;-59
2022/12/29 02:23:30;;;;;;;1.33;0.60;;;15.70;67.60;;;;;;10342591;28;20686;-59
2022/12/29 02:29:08;;;;;;;1.05;0.40;;;15.60;67.80;;;;;;10366318;28;20030;-58
2022/12/29 02:34:43;;;;;;;0.55;0.40;;;15.60;68.00;;;;;;10358517;28;20034;-59
2022/12/29 02:40:03;;;;;;;0.98;0.52;;;15.60;67.90;;;;;;10325213;28;20033;-58
2022/12/29 02:45:20;;;;;;;;;;;15.70;67.50;;;;;;10357082;28;20026;-59
2022/12/29 02:50:30;;;;;;;0.32;0.22;;;15.80;67.10;;;;;;10340695;28;19917;-59
2022/12/29 02:55:31;;;;;;;1.50;0.40;;;15.90;67.00;;;;;;10350426;28;20097;-59
2022/12/29 03:00:32;;;;;;;0.82;0.30;;;15.80;67.10;;;;;;10333544;28;20381;-59
2022/12/29 03:06:02;;;;;;;0.40;0.30;;;15.80;67.40;;;;;;10345974;28;20536;-59
2022/12/29 03:12:07;;;;;;;1.20;0.50;;;15.70;68.10;;;;;;10356562;28;20079;-59
2022/12/29 03:16:40;;;;;;;0.95;0.47;;;15.80;67.10;;;;;;10365266;28;20033;-58
2022/12/29 03:27:13;;;;;;;0.90;0.40;;;15.80;67.30;;;;;;10370137;28;20333;-59
2022/12/29 03:32:15;;;;;;;0.70;0.30;;;15.80;67.20;;;;;;10363180;28;20599;-58
2022/12/29 03:37:28;;;;;;;0.60;0.32;;;15.90;66.80;;;;;;10360315;28;20026;-59
2022/12/29 03:42:33;;;;;;;0.70;0.47;;;15.90;66.90;;;;;;10357326;28;20528;-58
2022/12/29 03:47:34;;;;;;;0.82;0.40;;;15.90;67.10;;;;;;10348666;28;20064;-59
2022/12/29 03:52:35;;;;;;;0.50;0.40;;;15.80;67.50;;;;;;10364537;28;20491;-58
2022/12/29 03:57:35;;;;;;;0.70;0.32;;;15.80;67.70;;;;;;10359726;28;20108;-58
2022/12/29 04:02:36;;;;;;;1.27;0.30;;;15.70;68.00;;;;;;10351083;28;20075;-59
2022/12/29 04:07:37;;;;;;;0.50;0.30;;;15.60;68.20;;;;;;10363027;28;20087;-61
2022/12/29 04:12:37;;;;;;;0.70;0.40;;;15.60;68.40;;;;;;10373465;28;20060;-58
2022/12/29 04:17:38;;;;;;;0.95;0.40;;;15.60;68.40;;;;;;10377048;28;20525;-59
2022/12/29 04:22:39;;;;;;;0.93;0.40;;;15.70;68.10;;;;;;10367273;28;20026;-59
2022/12/29 04:27:39;;;;;;;0.45;0.30;;;15.60;68.20;;;;;;10373277;28;20050;-59
2022/12/29 04:32:40;;;;;;;0.88;0.57;;;15.60;68.30;;;;;;10368852;28;20947;-58
2022/12/29 04:37:41;;;;;;;0.43;0.35;;;15.60;68.40;;;;;;10368998;28;20117;-59
2022/12/29 04:42:41;;;;;;;0.73;0.50;;;15.60;68.60;;;;;;10365150;28;20053;-58
2022/12/29 04:47:42;;;;;;;0.82;0.40;;;15.50;68.60;;;;;;10362726;28;20089;-58
2022/12/29 04:52:42;;;;;;;0.98;0.38;;;15.50;68.60;;;;;;10349234;28;20132;-59
2022/12/29 04:57:43;;;;;;;0.73;0.47;;;15.60;68.40;;;;;;10349437;28;20041;-59
2022/12/29 05:02:44;;;;;;;0.75;0.30;;;15.60;68.20;;;;;;10344473;28;20117;-59
2022/12/29 05:07:45;;;;;;;1.50;0.40;;;15.60;68.30;;;;;;10330422;28;20077;-59
2022/12/29 05:12:45;;;;;;;0.68;0.40;;;15.70;67.50;;;;;;10351145;28;20138;-58
2022/12/29 05:17:46;;;;;;;1.20;0.50;;;15.80;67.30;;;;;;10355487;28;20053;-59
2022/12/29 05:22:47;;;;;;;2.80;0.50;;;15.90;67.40;;;;;;10345519;28;20113;-58
2022/12/29 05:27:47;;;;;;;1.02;0.88;;;15.80;68.40;;;;;;10365010;28;20109;-59
2022/12/29 05:32:48;;;;;;;0.75;0.32;;;15.70;68.10;;;;;;10343087;28;20493;-59
2022/12/29 05:37:49;;;;;;;1.00;0.40;;;15.60;68.20;;;;;;10367538;28;20097;-58
2022/12/29 05:42:49;;;;;;;0.95;0.40;;;15.60;68.30;;;;;;10359595;28;20022;-58
2022/12/29 05:47:50;;;;;;;0.88;0.40;;;15.70;67.50;;;;;;10342274;28;20022;-58
2022/12/29 05:52:51;;;;;;;0.93;0.40;;;15.70;67.80;;;;;;10357717;28;20049;-58
2022/12/29 05:57:51;;;;;;;0.98;0.40;;;15.70;67.70;;;;;;10365331;28;20109;-59
2022/12/29 06:02:52;;;;;;;0.55;0.40;;;15.70;68.10;;;;;;10367321;28;20105;-58
2022/12/29 06:07:53;;;;;;;0.43;0.30;;;15.60;68.20;;;;;;10352797;28;20494;-58
2022/12/29 06:12:53;;;;;;;0.82;0.30;;;15.60;68.10;;;;;;10335221;28;20133;-59
2022/12/29 06:17:54;;;;;;;0.98;0.40;;;15.80;67.60;;;;;;10364528;28;20061;-58
2022/12/29 06:22:54;;;;;;;1.00;0.65;;;15.70;68.00;;;;;;10363736;28;20128;-59
2022/12/29 06:27:55;;;;;;;1.70;0.98;;;15.60;68.20;;;;;;10345963;28;20513;-58
2022/12/29 06:32:57;;;;;;;0.60;0.25;;;15.60;68.30;;;;;;10342382;28;20114;-59
2022/12/29 06:37:58;;;;;;;0.77;0.50;;;15.60;68.30;;;;;;10341839;28;20433;-59
2022/12/29 06:42:58;;;;;;;0.95;0.40;;;15.70;67.90;;;;;;10347383;28;20108;-58
2022/12/29 06:47:59;;;;;;;1.85;0.50;;;15.70;67.80;;;;;;10351538;28;20109;-59
2022/12/29 06:53:00;;;;;;;0.45;0.30;;;15.70;68.10;;;;;;10347102;28;20109;-58
2022/12/29 06:58:01;;;;;;;1.08;0.40;;;15.80;68.20;;;;;;10366535;28;20018;-58
2022/12/29 07:03:01;;;;;;;6.43;1.25;;;15.80;68.60;;;;;;10339582;28;20018;-58
2022/12/29 07:08:02;;;;;;;2.30;0.32;;;15.90;68.20;;;;;;10338550;28;20036;-57
2022/12/29 07:13:03;;;;;;;1.83;0.40;;;16.00;68.30;;;;;;10321602;28;20043;-58
2022/12/29 07:18:04;;;;;;;1.83;0.40;;;16.00;68.20;;;;;;10339764;28;20045;-56
2022/12/29 07:23:04;;;;;;;0.73;0.40;;;15.90;68.50;;;;;;10339897;28;20061;-59
2022/12/29 07:28:05;;;;;;;1.17;0.40;;;15.90;67.90;;;;;;10324138;28;20494;-59
2022/12/29 07:33:06;;;;;;;2.92;0.68;;;15.80;68.00;;;;;;10347712;28;20070;-60
2022/12/29 07:38:06;;;;;;;3.13;0.60;;;15.80;68.30;;;;;;10358927;28;20026;-58
2022/12/29 07:43:07;;;;;;;6.60;0.68;;;15.80;68.50;;;;;;10317941;28;20065;-58
2022/12/29 07:48:08;;;;;;;1.30;0.40;;;15.70;68.50;;;;;;10332812;28;20065;-58
2022/12/29 07:53:09;;;;;;;1.65;0.60;;;15.60;68.50;;;;;;10346164;28;20373;-56
2022/12/29 07:58:09;;;;;;;2.00;0.50;;;15.60;68.60;;;;;;10308248;28;20077;-58
2022/12/29 08:03:10;;;;;;;4.88;0.77;;;15.60;68.70;;;;;;10360135;28;20117;-58
2022/12/29 08:08:11;;;;;;;2.50;0.40;;;15.60;68.70;;;;;;10367111;28;20106;-58
2022/12/29 08:13:12;;;;;;;1.17;0.40;;;15.60;68.70;;;;;;10354068;28;20140;-58
2022/12/29 08:18:12;;;;;;;1.40;0.47;;;15.60;68.70;;;;;;10366990;28;20036;-58
2022/12/29 08:23:13;;;;;;;3.33;0.90;;;15.60;68.70;;;;;;10365571;28;20030;-58
2022/12/29 08:28:14;;;;;;;2.22;0.50;;;15.50;68.70;;;;;;10346099;28;20576;-59
2022/12/29 08:33:14;;;;;;;1.35;0.75;;;15.50;68.90;;;;;;10361220;28;20128;-58
2022/12/29 08:38:15;;;;;;;1.33;0.32;;;15.50;68.90;;;;;;10360265;28;20018;-58
2022/12/29 08:43:16;;;;;;;2.90;0.50;;;15.50;68.90;;;;;;10336703;28;20172;-58
2022/12/29 08:48:19;;;;;;;2.95;0.70;;;15.50;68.90;;;;;;10348988;28;20046;-58
2022/12/29 08:53:20;;;;;;;1.23;0.40;;;15.60;72.20;;;;;;10353436;28;20026;-58
2022/12/29 08:58:21;;;;;;;4.75;1.42;;;15.80;71.40;;;;;;10335987;28;20205;-58
2022/12/29 09:03:22;;;;;;;4.03;0.90;;;15.90;71.10;;;;;;10341977;28;20042;-56
2022/12/29 09:08:23;;;;;;;1.33;0.63;;;15.90;71.60;;;;;;10329541;28;20022;-57
2022/12/29 09:13:24;;;;;;;4.22;0.70;;;15.70;69.10;;;;;;10350721;28;20038;-58
2022/12/29 09:18:24;;;;;;;1.60;0.88;;;15.70;69.70;;;;;;10359290;28;20098;-56
2022/12/29 09:23:26;;;;;;;1.65;0.43;;;15.60;70.00;;;;;;10364113;28;20125;-55
2022/12/29 09:28:28;;;;;;;2.90;1.05;;;15.50;70.00;;;;;;10347496;28;20537;-57
2022/12/29 09:33:29;;;;;;;2.65;0.50;;;15.50;70.20;;;;;;10365443;28;20030;-57
2022/12/29 09:38:30;;;;;;;3.53;1.08;;;15.50;70.10;;;;;;10347864;28;20023;-56
2022/12/29 09:44:25;;;;;;;10.07;3.10;;;15.50;69.70;;;;;;10361469;28;20129;-55
2022/12/29 09:49:45;;;;;;;20.27;4.53;;;15.50;69.30;;;;;;10345565;28;20076;-54
2022/12/29 09:55:25;;;;;;;;;;;15.60;68.50;;;;;;10350188;28;20045;-57
2022/12/29 10:00:58;;;;;;;16.55;4.32;;;15.80;68.40;;;;;;10355167;28;20107;-55
2022/12/29 10:06:17;;;;;;;11.82;4.22;;;15.90;68.00;;;;;;10344049;28;20072;-56
2022/12/29 10:12:07;;;;;;;12.18;4.00;;;15.80;68.20;;;;;;10362116;28;20602;-56
2022/12/29 10:17:28;;;;;;;8.13;3.47;;;15.80;68.40;;;;;;10345670;28;20018;-56
2022/12/29 10:23:25;;;;;;;8.05;3.70;;;15.70;68.70;;;;;;10327847;28;20030;-56
2022/12/29 10:28:56;;;;;;;10.00;4.03;;;15.80;68.50;;;;;;10311518;28;20505;-56
2022/12/29 10:34:01;;;;;;;;;;;15.80;68.40;;;;;;10361091;28;20064;-57
2022/12/29 10:39:22;;;;;;;10.75;3.78;;;15.80;68.80;;;;;;10362203;28;19902;-57
2022/12/29 10:44:27;;;;;;;16.70;3.92;;;15.70;69.00;;;;;;10360858;28;20449;-57
2022/12/29 10:49:30;;;;;;;8.18;3.33;;;15.70;69.10;;;;;;10339588;28;20065;-56
2022/12/29 10:54:45;;;;;;;9.63;3.88;;;15.60;69.30;;;;;;10360404;28;20212;-56
2022/12/29 10:59:46;;;;;;;6.00;2.85;;;15.70;69.20;;;;;;10356699;28;20029;-56
2022/12/29 11:05:26;;;;;;;6.30;2.60;;;15.70;69.20;;;;;;10361449;28;20105;-54
2022/12/29 11:10:38;;;;;;;7.07;2.60;;;15.60;69.30;;;;;;10346318;28;20133;-57
2022/12/29 11:15:41;;;;;;;7.03;3.13;;;15.60;69.90;;;;;;10352804;28;20054;-55
2022/12/29 11:20:42;;;;;;;8.48;3.70;;;15.60;69.40;;;;;;10360699;28;20045;-55
2022/12/29 11:25:42;;;;;;;6.57;2.95;;;15.60;69.40;;;;;;10344401;28;20056;-56
2022/12/29 11:30:43;;;;;;;6.70;2.88;;;15.50;69.40;;;;;;10360213;28;20151;-56
2022/12/29 11:35:44;;;;;;;6.20;2.58;;;15.50;69.50;;;;;;10360839;28;20025;-56
2022/12/29 11:40:45;;;;;;;4.93;2.53;;;15.50;69.50;;;;;;10347731;28;20025;-56
2022/12/29 11:45:46;;;;;;;4.18;1.95;;;15.50;69.50;;;;;;10350065;28;20076;-55
2022/12/29 11:50:54;;;;;;;4.93;2.85;;;15.50;69.50;;;;;;10344689;28;20367;-56
2022/12/29 11:56:02;;;;;;;4.38;2.50;;;15.50;69.50;;;;;;10368534;28;20076;-56
2022/12/29 12:01:33;;;;;;;7.75;2.88;;;15.60;69.50;;;;;;10352603;28;20022;-56
2022/12/29 12:06:43;;;;;;;5.75;2.20;;;15.60;69.40;;;;;;10356065;28;20105;-55
2022/12/29 12:11:45;;;;;;;6.28;2.08;;;15.60;69.30;;;;;;10340121;28;20046;-55
2022/12/29 12:16:55;;;;;;;7.20;1.95;;;15.60;69.20;;;;;;10342254;28;20407;-54
2022/12/29 12:22:07;;;;;;;5.63;2.88;;;15.60;69.20;;;;;;10340686;28;20482;-56
2022/12/29 12:27:29;;;;;;;7.15;3.15;;;15.60;69.20;;;;;;10355289;28;20061;-56
2022/12/29 12:32:42;;;;;;;6.50;2.63;;;15.60;69.30;;;;;;10366924;28;20041;-56
2022/12/29 12:38:26;;;;;;;4.80;2.17;;;15.60;69.30;;;;;;10354419;28;20072;-56
2022/12/29 12:43:50;;;;;;;4.65;2.03;;;15.60;69.40;;;;;;10356340;28;20319;-56
2022/12/29 12:49:47;;;;;;;4.40;1.77;;;15.60;69.40;;;;;;10363189;28;20034;-55
2022/12/29 12:55:09;;;;;;;5.40;2.13;;;15.50;69.30;;;;;;10313832;28;20112;-56
2022/12/29 13:00:19;;;;;;;4.78;2.08;;;15.50;69.50;;;;;;10336859;28;20033;-54
2022/12/29 13:05:28;;;;;;;;;;;15.50;69.40;;;;;;10342281;28;20355;-56
2022/12/29 13:10:54;;;;;;;5.60;1.88;;;15.50;69.50;;;;;;10363886;28;19925;-57
2022/12/29 13:16:19;;;;;;;4.15;1.98;;;15.50;69.40;;;;;;10331595;28;20019;-56
2022/12/29 13:22:06;;;;;;;3.95;1.35;;;15.50;69.40;;;;;;10365019;28;20022;-56
2022/12/29 13:27:31;;;;;;;5.07;2.40;;;15.50;69.50;;;;;;10325520;28;20237;-56
2022/12/29 13:32:57;;;;;;;5.43;1.98;;;15.50;69.40;;;;;;10364914;28;20026;-55
2022/12/29 13:38:44;;;;;;;4.88;2.00;;;15.60;69.30;;;;;;10332892;28;20026;-56
2022/12/29 13:43:47;;;;;;;4.28;1.80;;;15.60;69.10;;;;;;10353966;28;20050;-56
2022/12/29 13:48:58;;;;;;;2.97;1.42;;;15.60;69.10;;;;;;10345173;28;20018;-56
2022/12/29 13:54:23;;;;;;;2.20;1.27;;;15.60;69.20;;;;;;10330670;28;20041;-56
2022/12/29 13:59:51;;;;;;;4.90;2.25;;;15.60;69.00;;;;;;10364196;28;20044;-56
2022/12/29 14:05:05;;;;;;;4.90;2.35;;;15.60;69.00;;;;;;10362097;28;20018;-55
2022/12/29 14:10:25;;;;;;;4.60;2.10;;;15.60;69.00;;;;;;10351080;28;20053;-56
2022/12/29 14:15:26;;;;;;;;;;;15.60;69.00;;;;;;10350663;28;20026;-55
2022/12/29 14:20:27;;;;;;;3.47;1.88;;;15.60;69.10;;;;;;10355503;28;19913;-56
2022/12/29 14:25:59;;;;;;;4.55;1.38;;;15.50;69.10;;;;;;10363417;28;20385;-58
2022/12/29 14:31:18;;;;;;;4.30;2.08;;;15.50;69.10;;;;;;10362253;28;20029;-56
2022/12/29 14:36:32;;;;;;;2.80;1.50;;;15.50;69.00;;;;;;10362931;28;20022;-55
2022/12/29 14:41:37;;;;;;;3.90;1.38;;;15.50;68.90;;;;;;10316840;28;20022;-56
2022/12/29 14:46:52;;;;;;;2.65;1.60;;;15.60;68.80;;;;;;10345909;28;20029;-56
2022/12/29 14:52:06;;;;;;;5.45;1.30;;;15.60;69.30;;;;;;10344468;28;20040;-56
2022/12/29 14:57:37;;;;;;;2.97;1.20;;;15.60;68.70;;;;;;10362051;28;20015;-56
2022/12/29 15:02:44;;;;;;;2.65;1.30;;;15.60;68.70;;;;;;10358839;28;20030;-56
2022/12/29 15:07:45;;;;;;;2.58;1.05;;;15.60;68.80;;;;;;10354286;28;20084;-56
2022/12/29 15:12:53;;;;;;;3.42;1.42;;;15.60;68.90;;;;;;10346486;28;20084;-56
2022/12/29 15:17:54;;;;;;;2.90;1.30;;;15.50;69.00;;;;;;10351002;28;20434;-55
2022/12/29 15:23:08;;;;;;;2.83;1.27;;;15.50;68.90;;;;;;10353948;28;20037;-55
2022/12/29 15:28:12;;;;;;;1.48;0.95;;;15.60;68.70;;;;;;10343236;28;20026;-55
2022/12/29 15:33:22;;;;;;;1.75;1.25;;;15.60;68.70;;;;;;10344417;28;20118;-56
2022/12/29 15:38:28;;;;;;;2.25;1.30;;;15.60;68.70;;;;;;10319946;28;20022;-56
2022/12/29 15:44:20;;;;;;;2.25;0.95;;;15.60;68.70;;;;;;10344074;28;20026;-55
2022/12/29 15:49:23;;;;;;;3.40;1.35;;;15.60;68.70;;;;;;10358849;28;20489;-55
2022/12/29 15:54:28;;;;;;;2.80;1.05;;;15.60;68.70;;;;;;10343871;28;20116;-56
2022/12/29 15:59:33;;;;;;;2.35;1.02;;;15.50;68.90;;;;;;10341131;28;20026;-55
2022/12/29 16:04:34;;;;;;;2.60;1.10;;;15.60;68.80;;;;;;10359162;28;20026;-56
2022/12/29 16:09:42;;;;;;;1.83;1.02;;;15.50;68.80;;;;;;10357808;28;20501;-56
2022/12/29 16:15:00;;;;;;;2.63;1.30;;;15.60;68.70;;;;;;10346560;28;20502;-56
2022/12/29 16:20:21;;;;;;;1.23;0.73;;;15.60;69.20;;;;;;10340345;28;20403;-56
2022/12/29 16:25:35;;;;;;;3.30;1.10;;;15.60;68.40;;;;;;10347217;28;20354;-56
2022/12/29 16:30:36;;;;;;;9.27;1.48;;;15.60;68.50;;;;;;10364873;28;20037;-55
2022/12/29 16:35:42;;;;;;;6.40;1.45;;;15.60;68.40;;;;;;10363259;28;20014;-54
2022/12/29 16:40:58;;;;;;;7.22;1.73;;;15.60;69.10;;;;;;10367782;28;20018;-56
2022/12/29 16:45:59;;;;;;;9.63;1.75;;;15.70;68.70;;;;;;10355398;28;20113;-56
2022/12/29 16:51:16;;;;;;;10.30;1.95;;;16.00;67.70;;;;;;10362135;28;20093;-56
2022/12/29 16:56:25;;;;;;;8.45;1.58;;;16.30;67.10;;;;;;10341772;28;20030;-56
2022/12/29 17:01:25;;;;;;;8.95;1.52;;;16.60;69.20;;;;;;10326108;28;20026;-59
2022/12/29 17:06:26;;;;;;;11.00;2.17;;;16.90;68.30;;;;;;10356952;28;20414;-58
2022/12/29 17:16:53;;;;;;;6.45;2.13;;;17.10;68.90;;;;;;10339182;28;20053;-57
2022/12/29 17:21:53;;;;;;;13.50;2.22;;;17.00;68.80;;;;;;10345417;28;20034;-57
2022/12/29 17:26:59;;;;;;;11.85;1.70;;;17.00;69.10;;;;;;10349448;28;20504;-57
2022/12/29 17:32:03;;;;;;;8.40;1.77;;;16.90;68.70;;;;;;10363741;28;20272;-58
2022/12/29 17:37:31;;;;;;;8.20;2.05;;;16.90;68.80;;;;;;10311990;28;20500;-55
2022/12/29 17:42:38;;;;;;;17.27;2.00;;;16.90;69.00;;;;;;10332594;28;20441;-57
2022/12/29 17:47:39;;;;;;;18.73;2.28;;;16.80;68.90;;;;;;10359990;28;20087;-57
2022/12/29 17:52:42;;;;;;;16.10;2.28;;;16.50;70.20;;;;;;10334611;28;20036;-56
2022/12/29 17:57:43;;;;;;;16.98;2.70;;;16.40;70.70;;;;;;10356953;28;20017;-55
2022/12/29 18:02:44;;;;;;;17.80;3.30;;;16.30;71.50;;;;;;10348643;28;20030;-56
2022/12/29 18:07:45;;;;;;;7.95;1.92;;;16.30;71.40;;;;;;10326984;28;20481;-56
2022/12/29 18:12:48;;;;;;;13.57;2.60;;;16.30;71.50;;;;;;10348166;28;20042;-56
2022/12/29 18:17:57;;;;;;;10.68;2.83;;;16.30;71.80;;;;;;10320213;28;20106;-55
2022/12/29 18:22:58;;;;;;;9.30;2.20;;;16.30;71.80;;;;;;10337433;28;20069;-57
2022/12/29 18:27:59;;;;;;;5.90;2.10;;;16.20;71.60;;;;;;10344040;28;20527;-55
2022/12/29 18:32:59;;;;;;;10.18;1.67;;;16.20;71.70;;;;;;10349300;28;20505;-55
2022/12/29 18:38:00;;;;;;;8.88;1.83;;;16.20;71.60;;;;;;10349370;28;20113;-55
2022/12/29 18:43:01;;;;;;;5.97;1.58;;;16.10;71.50;;;;;;10347491;28;20112;-56
2022/12/29 18:48:02;;;;;;;6.63;1.75;;;16.10;71.50;;;;;;10347548;28;20037;-56
2022/12/29 18:53:03;;;;;;;8.43;2.20;;;16.10;71.50;;;;;;10343933;28;20333;-56
2022/12/29 18:58:03;;;;;;;8.60;1.95;;;16.10;71.70;;;;;;10345685;28;20025;-59
2022/12/29 19:03:04;;;;;;;10.27;1.88;;;16.00;71.30;;;;;;10342981;28;20545;-58
2022/12/29 19:08:06;;;;;;;7.78;1.98;;;16.00;71.80;;;;;;10354162;28;20032;-59
2022/12/29 19:13:18;;;;;;;6.88;1.92;;;16.00;71.80;;;;;;10360825;28;20445;-57
2022/12/29 19:18:21;;;;;;;7.72;1.77;;;16.00;71.50;;;;;;10344626;28;20397;-59
2022/12/29 19:23:25;;;;;;;7.20;1.95;;;16.10;71.30;;;;;;10353983;28;20025;-58
2022/12/29 19:28:27;;;;;;;8.57;2.67;;;16.00;70.90;;;;;;10353670;28;20362;-60
2022/12/29 19:33:28;;;;;;;4.07;1.63;;;16.00;72.00;;;;;;10340420;28;20389;-61
2022/12/29 19:38:29;;;;;;;6.15;2.30;;;16.00;71.90;;;;;;10342375;28;20026;-57
2022/12/29 19:43:29;;;;;;;5.57;1.60;;;16.00;71.60;;;;;;10340612;28;20026;-58
2022/12/29 19:48:30;;;;;;;6.03;1.92;;;15.90;71.50;;;;;;10336649;28;20110;-56
2022/12/29 19:53:31;;;;;;;3.90;1.63;;;15.90;71.80;;;;;;10342513;28;20049;-57
2022/12/29 19:58:34;;;;;;;5.78;1.48;;;15.80;71.80;;;;;;10348506;28;20530;-57
2022/12/29 20:03:35;;;;;;;8.32;2.63;;;15.80;72.10;;;;;;10355985;28;20026;-58
2022/12/29 20:08:37;;;;;;;4.22;1.40;;;15.70;71.60;;;;;;10360133;28;20022;-58
2022/12/29 20:13:39;;;;;;;4.70;1.83;;;15.80;71.40;;;;;;10356578;28;20047;-57
2022/12/29 20:18:40;;;;;;;7.18;2.17;;;15.70;71.70;;;;;;10345910;28;20026;-58
2022/12/29 20:23:43;;;;;;;5.43;1.80;;;15.60;71.90;;;;;;10329398;28;20034;-56
2022/12/29 20:28:44;;;;;;;3.83;1.67;;;15.60;71.50;;;;;;10349019;28;20081;-57
2022/12/29 20:33:46;;;;;;;4.50;1.90;;;15.60;71.40;;;;;;10353477;28;20018;-58
2022/12/29 20:38:48;;;;;;;4.95;1.67;;;15.60;71.80;;;;;;10351178;28;20025;-57
2022/12/29 20:43:51;;;;;;;5.40;1.95;;;15.50;71.30;;;;;;10350491;28;20137;-58
2022/12/29 20:48:53;;;;;;;7.43;1.40;;;15.50;71.50;;;;;;10336843;28;20109;-57
2022/12/29 20:53:53;;;;;;;4.75;1.70;;;15.50;71.50;;;;;;10330549;28;20034;-57
2022/12/29 20:58:54;;;;;;;4.03;1.35;;;15.50;71.30;;;;;;10368912;28;20032;-58
2022/12/29 21:03:55;;;;;;;5.00;1.80;;;15.50;71.10;;;;;;10343432;28;20030;-57
2022/12/29 21:08:56;;;;;;;2.88;1.67;;;15.50;71.00;;;;;;10366124;28;20022;-57
2022/12/29 21:13:58;;;;;;;5.63;1.90;;;15.50;70.90;;;;;;10335867;28;20057;-57
2022/12/29 21:18:58;;;;;;;2.30;1.10;;;15.50;70.80;;;;;;10360027;28;20018;-56
2022/12/29 21:24:04;;;;;;;4.50;1.40;;;15.50;71.40;;;;;;10353485;28;20335;-56
2022/12/29 21:29:05;;;;;;;5.07;1.73;;;15.50;70.70;;;;;;10362195;28;20018;-57
2022/12/29 21:34:06;;;;;;;5.13;1.45;;;15.50;70.60;;;;;;10353604;28;20033;-57
2022/12/29 21:39:06;;;;;;;2.92;1.30;;;15.60;70.60;;;;;;10354556;28;20029;-58
2022/12/29 21:49:27;;;;;;;3.90;1.50;;;15.50;70.60;;;;;;10363612;28;20117;-57
2022/12/29 22:15:50;;;;;;;3.67;1.27;;;15.60;69.90;;;;;;10366754;28;20026;-57
2022/12/29 22:20:50;;;;;;;3.42;1.30;;;15.60;70.10;;;;;;10351576;28;20022;-57
2022/12/29 22:25:51;;;;;;;3.72;1.25;;;15.60;70.40;;;;;;10352303;28;20016;-57
2022/12/29 22:30:52;;;;;;;3.90;1.50;;;15.60;70.40;;;;;;10362491;28;20108;-57
2022/12/29 22:35:52;;;;;;;3.38;1.40;;;15.60;70.40;;;;;;10362851;28;20608;-57
2022/12/29 22:40:58;;;;;;;4.68;1.63;;;15.50;70.40;;;;;;10351127;28;20113;-58
2022/12/29 22:46:04;;;;;;;3.25;1.20;;;15.50;70.40;;;;;;10336745;28;20022;-57
2022/12/29 22:51:05;;;;;;;2.50;1.10;;;15.50;70.30;;;;;;10351385;28;20033;-57
2022/12/29 22:56:09;;;;;;;4.07;1.73;;;15.50;70.20;;;;;;10316844;28;20027;-57
2022/12/29 23:01:12;;;;;;;3.35;1.00;;;15.50;70.20;;;;;;10329313;28;20041;-56
2022/12/29 23:06:15;;;;;;;2.92;1.55;;;15.50;70.20;;;;;;10330336;28;20037;-58
2022/12/29 23:11:16;;;;;;;3.22;1.40;;;15.60;69.90;;;;;;10363340;28;20132;-58
2022/12/29 23:16:17;;;;;;;3.95;2.20;;;15.60;70.00;;;;;;10362512;28;20022;-58
2022/12/29 23:21:19;;;;;;;2.60;1.13;;;15.80;69.30;;;;;;10362414;28;20022;-56
2022/12/29 23:26:39;;;;;;;4.05;1.45;;;15.70;69.60;;;;;;10334390;28;20034;-57
2022/12/29 23:31:40;;;;;;;4.95;1.30;;;15.60;69.70;;;;;;10359292;28;20037;-57
2022/12/29 23:36:41;;;;;;;3.00;0.98;;;15.60;69.80;;;;;;10328920;28;20022;-58
2022/12/29 23:41:42;;;;;;;6.82;1.48;;;15.50;69.80;;;;;;10357642;28;20072;-57
2022/12/29 23:46:43;;;;;;;6.20;1.42;;;15.60;69.90;;;;;;10358175;28;20165;-57
2022/12/29 23:51:43;;;;;;;4.40;1.27;;;15.60;69.30;;;;;;10358612;28;20061;-58
2022/12/29 23:56:44;;;;;;;3.10;1.25;;;15.70;68.90;;;;;;10329830;28;20038;-57
